sensor_id;sensor_type;location;lat;lon;timestamp;temperature;humidity
43679;DHT22;29279;50.858;4.392;2022-12-29T00:02:10;11.20;99.90
43679;DHT22;29279;50.858;4.392;2022-12-29T00:04:36;11.20;99.90
43679;DHT22;29279;50.858;4.392;2022-12-29T00:07:02;11.30;99.90
43679;DHT22;29279;50.858;4.392;2022-12-29T00:09:30;11.20;99.90
43679;DHT22;29279;50.858;4.392;2022-12-29T00:11:56;11.30;99.90
43679;DHT22;29279;50.858;4.392;2022-12-29T00:14:22;11.30;99.90
43679;DHT22;29279;50.858;4.392;2022-12-29T00:17:06;11.20;99.90
43679;DHT22;29279;50.858;4.392;2022-12-29T00:19:32;11.30;99.90
43679;DHT22;29279;50.858;4.392;2022-12-29T00:22:16;11.30;99.90
43679;DHT22;29279;50.858;4.392;2022-12-29T00:25:00;11.30;99.90
43679;DHT22;29279;50.858;4.392;2022-12-29T00:27:28;11.30;99.90
43679;DHT22;29279;50.858;4.392;2022-12-29T00:30:17;11.30;99.90
43679;DHT22;29279;50.858;4.392;2022-12-29T00:33:12;11.40;99.90
43679;DHT22;29279;50.858;4.392;2022-12-29T00:38:37;11.40;99.90
43679;DHT22;29279;50.858;4.392;2022-12-29T00:41:22;11.50;99.90
43679;DHT22;29279;50.858;4.392;2022-12-29T00:44:08;11.50;99.90
43679;DHT22;29279;50.858;4.392;2022-12-29T00:46:40;11.50;99.90
43679;DHT22;29279;50.858;4.392;2022-12-29T00:49:08;11.60;99.90
43679;DHT22;29279;50.858;4.392;2022-12-29T00:51:54;11.60;99.90
43679;DHT22;29279;50.858;4.392;2022-12-29T00:54:19;11.60;99.90
43679;DHT22;29279;50.858;4.392;2022-12-29T00:56:47;11.70;99.90
43679;DHT22;29279;50.858;4.392;2022-12-29T00:59:13;11.70;99.90
43679;DHT22;29279;50.858;4.392;2022-12-29T01:01:39;11.70;99.90
43679;DHT22;29279;50.858;4.392;2022-12-29T01:04:05;11.70;99.90
43679;DHT22;29279;50.858;4.392;2022-12-29T01:06:31;11.80;99.90
43679;DHT22;29279;50.858;4.392;2022-12-29T01:08:57;11.80;99.90
43679;DHT22;29279;50.858;4.392;2022-12-29T01:11:41;11.70;99.90
43679;DHT22;29279;50.858;4.392;2022-12-29T01:14:07;11.70;99.90
43679;DHT22;29279;50.858;4.392;2022-12-29T01:16:33;11.70;99.90
43679;DHT22;29279;50.858;4.392;2022-12-29T01:18:59;11.60;99.90
43679;DHT22;29279;50.858;4.392;2022-12-29T01:21:25;11.50;99.90
43679;DHT22;29279;50.858;4.392;2022-12-29T01:23:51;11.50;99.90
43679;DHT22;29279;50.858;4.392;2022-12-29T01:26:17;11.30;99.90
43679;DHT22;29279;50.858;4.392;2022-12-29T01:28:44;11.40;99.90
43679;DHT22;29279;50.858;4.392;2022-12-29T01:31:10;11.30;99.90
43679;DHT22;29279;50.858;4.392;2022-12-29T01:33:37;11.30;99.90
43679;DHT22;29279;50.858;4.392;2022-12-29T01:36:04;11.10;99.90
43679;DHT22;29279;50.858;4.392;2022-12-29T01:38:30;11.20;99.90
43679;DHT22;29279;50.858;4.392;2022-12-29T01:40:56;11.00;99.90
43679;DHT22;29279;50.858;4.392;2022-12-29T01:43:39;10.90;99.90
43679;DHT22;29279;50.858;4.392;2022-12-29T01:48:40;10.80;99.90
43679;DHT22;29279;50.858;4.392;2022-12-29T01:51:07;10.90;99.90
43679;DHT22;29279;50.858;4.392;2022-12-29T01:53:33;10.90;99.90
43679;DHT22;29279;50.858;4.392;2022-12-29T01:56:04;11.00;99.90
43679;DHT22;29279;50.858;4.392;2022-12-29T01:58:35;10.90;99.90
43679;DHT22;29279;50.858;4.392;2022-12-29T02:01:04;11.00;99.90
43679;DHT22;29279;50.858;4.392;2022-12-29T02:03:30;10.90;99.90
43679;DHT22;29279;50.858;4.392;2022-12-29T02:06:23;10.90;99.90
43679;DHT22;29279;50.858;4.392;2022-12-29T02:08:50;10.80;99.90
43679;DHT22;29279;50.858;4.392;2022-12-29T02:11:18;10.70;99.90
43679;DHT22;29279;50.858;4.392;2022-12-29T02:13:44;10.70;99.90
43679;DHT22;29279;50.858;4.392;2022-12-29T02:19:13;10.40;99.90
43679;DHT22;29279;50.858;4.392;2022-12-29T02:36:47;9.80;99.90
43679;DHT22;29279;50.858;4.392;2022-12-29T02:39:30;9.80;99.90
43679;DHT22;29279;50.858;4.392;2022-12-29T02:45:31;9.70;99.90
43679;DHT22;29279;50.858;4.392;2022-12-29T02:48:15;9.60;99.90
43679;DHT22;29279;50.858;4.392;2022-12-29T02:53:17;9.70;99.90
43679;DHT22;29279;50.858;4.392;2022-12-29T02:56:04;9.70;99.90
43679;DHT22;29279;50.858;4.392;2022-12-29T02:58:30;9.70;99.90
43679;DHT22;29279;50.858;4.392;2022-12-29T03:03:58;9.70;99.90
43679;DHT22;29279;50.858;4.392;2022-12-29T03:06:33;9.70;99.90
43679;DHT22;29279;50.858;4.392;2022-12-29T03:09:37;9.70;99.90
43679;DHT22;29279;50.858;4.392;2022-12-29T03:15:06;9.50;99.90
43679;DHT22;29279;50.858;4.392;2022-12-29T03:17:59;9.50;99.90
43679;DHT22;29279;50.858;4.392;2022-12-29T03:20:38;9.40;99.90
43679;DHT22;29279;50.858;4.392;2022-12-29T03:23:05;9.40;99.90
43679;DHT22;29279;50.858;4.392;2022-12-29T03:25:38;9.40;99.90
43679;DHT22;29279;50.858;4.392;2022-12-29T03:28:28;9.40;99.90
43679;DHT22;29279;50.858;4.392;2022-12-29T03:30:55;9.40;99.90
43679;DHT22;29279;50.858;4.392;2022-12-29T03:33:24;9.50;99.90
43679;DHT22;29279;50.858;4.392;2022-12-29T03:35:54;9.50;99.90
43679;DHT22;29279;50.858;4.392;2022-12-29T03:38:23;9.60;99.90
43679;DHT22;29279;50.858;4.392;2022-12-29T03:40:55;9.60;99.90
43679;DHT22;29279;50.858;4.392;2022-12-29T03:43:21;9.70;99.90
43679;DHT22;29279;50.858;4.392;2022-12-29T03:45:47;9.80;99.90
43679;DHT22;29279;50.858;4.392;2022-12-29T03:48:13;9.80;99.90
43679;DHT22;29279;50.858;4.392;2022-12-29T03:50:39;9.80;99.90
43679;DHT22;29279;50.858;4.392;2022-12-29T03:53:04;9.80;99.90
43679;DHT22;29279;50.858;4.392;2022-12-29T03:55:30;9.90;99.90
43679;DHT22;29279;50.858;4.392;2022-12-29T03:57:56;10.00;99.90
43679;DHT22;29279;50.858;4.392;2022-12-29T04:00:21;10.00;99.90
43679;DHT22;29279;50.858;4.392;2022-12-29T04:02:47;10.00;99.90
43679;DHT22;29279;50.858;4.392;2022-12-29T04:05:13;9.90;99.90
43679;DHT22;29279;50.858;4.392;2022-12-29T04:07:38;9.90;99.90
43679;DHT22;29279;50.858;4.392;2022-12-29T04:10:04;9.90;99.90
43679;DHT22;29279;50.858;4.392;2022-12-29T04:12:30;9.90;99.90
43679;DHT22;29279;50.858;4.392;2022-12-29T04:14:55;9.80;99.90
43679;DHT22;29279;50.858;4.392;2022-12-29T04:17:21;9.80;99.90
43679;DHT22;29279;50.858;4.392;2022-12-29T04:19:47;9.80;99.90
43679;DHT22;29279;50.858;4.392;2022-12-29T04:22:12;9.80;99.90
43679;DHT22;29279;50.858;4.392;2022-12-29T04:24:38;9.80;99.90
43679;DHT22;29279;50.858;4.392;2022-12-29T04:27:04;9.80;99.90
43679;DHT22;29279;50.858;4.392;2022-12-29T04:29:29;9.80;99.90
43679;DHT22;29279;50.858;4.392;2022-12-29T04:31:55;9.80;99.90
43679;DHT22;29279;50.858;4.392;2022-12-29T04:34:21;9.80;99.90
43679;DHT22;29279;50.858;4.392;2022-12-29T04:36:47;9.80;99.90
43679;DHT22;29279;50.858;4.392;2022-12-29T04:39:12;9.90;99.90
43679;DHT22;29279;50.858;4.392;2022-12-29T04:41:38;10.00;99.90
43679;DHT22;29279;50.858;4.392;2022-12-29T04:44:04;10.00;99.90
43679;DHT22;29279;50.858;4.392;2022-12-29T04:46:29;10.10;99.90
43679;DHT22;29279;50.858;4.392;2022-12-29T04:48:55;10.10;99.90
43679;DHT22;29279;50.858;4.392;2022-12-29T04:51:21;10.10;99.90
43679;DHT22;29279;50.858;4.392;2022-12-29T04:53:46;10.10;99.90
43679;DHT22;29279;50.858;4.392;2022-12-29T04:56:12;10.20;99.90
43679;DHT22;29279;50.858;4.392;2022-12-29T04:58:38;10.20;99.90
43679;DHT22;29279;50.858;4.392;2022-12-29T05:01:03;10.30;99.90
43679;DHT22;29279;50.858;4.392;2022-12-29T05:03:29;10.30;99.90
43679;DHT22;29279;50.858;4.392;2022-12-29T05:05:56;10.30;99.90
43679;DHT22;29279;50.858;4.392;2022-12-29T05:08:23;10.30;99.90
43679;DHT22;29279;50.858;4.392;2022-12-29T05:10:52;10.30;99.90
43679;DHT22;29279;50.858;4.392;2022-12-29T05:13:18;10.30;99.90
43679;DHT22;29279;50.858;4.392;2022-12-29T05:15:53;10.20;99.90
43679;DHT22;29279;50.858;4.392;2022-12-29T05:18:19;10.20;99.90
43679;DHT22;29279;50.858;4.392;2022-12-29T05:20:46;10.40;99.90
43679;DHT22;29279;50.858;4.392;2022-12-29T05:23:12;10.50;99.90
43679;DHT22;29279;50.858;4.392;2022-12-29T05:25:38;10.40;99.90
43679;DHT22;29279;50.858;4.392;2022-12-29T05:28:04;10.40;99.90
43679;DHT22;29279;50.858;4.392;2022-12-29T05:30:29;10.40;99.90
43679;DHT22;29279;50.858;4.392;2022-12-29T05:32:55;10.40;99.90
43679;DHT22;29279;50.858;4.392;2022-12-29T05:35:21;10.40;99.90
43679;DHT22;29279;50.858;4.392;2022-12-29T05:37:46;10.50;99.90
43679;DHT22;29279;50.858;4.392;2022-12-29T05:40:12;10.50;99.90
43679;DHT22;29279;50.858;4.392;2022-12-29T05:42:37;10.50;99.90
43679;DHT22;29279;50.858;4.392;2022-12-29T05:45:03;10.50;99.90
43679;DHT22;29279;50.858;4.392;2022-12-29T05:47:32;10.40;99.90
43679;DHT22;29279;50.858;4.392;2022-12-29T05:49:58;10.40;99.90
43679;DHT22;29279;50.858;4.392;2022-12-29T05:52:23;10.40;99.90
43679;DHT22;29279;50.858;4.392;2022-12-29T05:54:49;10.40;99.90
43679;DHT22;29279;50.858;4.392;2022-12-29T05:57:15;10.30;99.90
43679;DHT22;29279;50.858;4.392;2022-12-29T05:59:40;10.20;99.90
43679;DHT22;29279;50.858;4.392;2022-12-29T06:02:06;10.20;99.90
43679;DHT22;29279;50.858;4.392;2022-12-29T06:04:32;10.20;99.90
43679;DHT22;29279;50.858;4.392;2022-12-29T06:06:57;10.20;99.90
43679;DHT22;29279;50.858;4.392;2022-12-29T06:09:23;10.40;99.90
43679;DHT22;29279;50.858;4.392;2022-12-29T06:11:49;10.40;99.90
43679;DHT22;29279;50.858;4.392;2022-12-29T06:14:14;10.30;99.90
43679;DHT22;29279;50.858;4.392;2022-12-29T06:16:40;10.20;99.90
43679;DHT22;29279;50.858;4.392;2022-12-29T06:19:07;10.20;99.90
43679;DHT22;29279;50.858;4.392;2022-12-29T06:21:32;10.10;99.90
43679;DHT22;29279;50.858;4.392;2022-12-29T06:23:58;10.10;99.90
43679;DHT22;29279;50.858;4.392;2022-12-29T06:26:24;10.10;99.90
43679;DHT22;29279;50.858;4.392;2022-12-29T06:28:49;10.10;99.90
43679;DHT22;29279;50.858;4.392;2022-12-29T06:31:15;10.10;99.90
43679;DHT22;29279;50.858;4.392;2022-12-29T06:33:41;10.20;99.90
43679;DHT22;29279;50.858;4.392;2022-12-29T06:36:07;10.20;99.90
43679;DHT22;29279;50.858;4.392;2022-12-29T06:38:32;10.20;99.90
43679;DHT22;29279;50.858;4.392;2022-12-29T06:40:58;10.20;99.90
43679;DHT22;29279;50.858;4.392;2022-12-29T06:43:24;10.20;99.90
43679;DHT22;29279;50.858;4.392;2022-12-29T06:45:49;10.30;99.90
43679;DHT22;29279;50.858;4.392;2022-12-29T06:48:15;10.40;99.90
43679;DHT22;29279;50.858;4.392;2022-12-29T06:50:41;10.40;99.90
43679;DHT22;29279;50.858;4.392;2022-12-29T06:53:06;10.40;99.90
43679;DHT22;29279;50.858;4.392;2022-12-29T06:55:32;10.40;99.90
43679;DHT22;29279;50.858;4.392;2022-12-29T06:57:58;10.40;99.90
43679;DHT22;29279;50.858;4.392;2022-12-29T07:00:24;10.40;99.90
43679;DHT22;29279;50.858;4.392;2022-12-29T07:02:50;10.30;99.90
43679;DHT22;29279;50.858;4.392;2022-12-29T07:05:16;10.30;99.90
43679;DHT22;29279;50.858;4.392;2022-12-29T07:07:42;10.30;99.90
43679;DHT22;29279;50.858;4.392;2022-12-29T07:10:08;10.30;99.90
43679;DHT22;29279;50.858;4.392;2022-12-29T07:12:33;10.30;99.90
43679;DHT22;29279;50.858;4.392;2022-12-29T07:14:59;10.30;99.90
43679;DHT22;29279;50.858;4.392;2022-12-29T07:17:25;10.20;99.90
43679;DHT22;29279;50.858;4.392;2022-12-29T07:19:50;10.20;99.90
43679;DHT22;29279;50.858;4.392;2022-12-29T07:22:16;10.30;99.90
43679;DHT22;29279;50.858;4.392;2022-12-29T07:24:42;10.30;99.90
43679;DHT22;29279;50.858;4.392;2022-12-29T07:27:08;10.40;99.90
43679;DHT22;29279;50.858;4.392;2022-12-29T07:29:36;10.40;99.90
43679;DHT22;29279;50.858;4.392;2022-12-29T07:32:01;10.40;99.90
43679;DHT22;29279;50.858;4.392;2022-12-29T07:34:27;10.30;99.90
43679;DHT22;29279;50.858;4.392;2022-12-29T07:36:53;10.40;99.90
43679;DHT22;29279;50.858;4.392;2022-12-29T07:39:18;10.40;99.90
43679;DHT22;29279;50.858;4.392;2022-12-29T07:41:44;10.50;99.90
43679;DHT22;29279;50.858;4.392;2022-12-29T07:44:10;10.50;99.90
43679;DHT22;29279;50.858;4.392;2022-12-29T07:46:35;10.40;99.90
43679;DHT22;29279;50.858;4.392;2022-12-29T07:49:01;10.50;99.90
43679;DHT22;29279;50.858;4.392;2022-12-29T07:51:27;10.50;99.90
43679;DHT22;29279;50.858;4.392;2022-12-29T07:53:52;10.50;99.90
43679;DHT22;29279;50.858;4.392;2022-12-29T07:56:18;10.50;99.90
43679;DHT22;29279;50.858;4.392;2022-12-29T07:58:43;10.50;99.90
43679;DHT22;29279;50.858;4.392;2022-12-29T08:01:09;10.50;99.90
43679;DHT22;29279;50.858;4.392;2022-12-29T08:03:35;10.50;99.90
43679;DHT22;29279;50.858;4.392;2022-12-29T08:06:01;10.50;99.90
43679;DHT22;29279;50.858;4.392;2022-12-29T08:08:27;10.50;99.90
43679;DHT22;29279;50.858;4.392;2022-12-29T08:10:54;10.50;99.90
43679;DHT22;29279;50.858;4.392;2022-12-29T08:13:19;10.40;99.90
43679;DHT22;29279;50.858;4.392;2022-12-29T08:15:45;10.40;99.90
43679;DHT22;29279;50.858;4.392;2022-12-29T08:18:11;10.40;99.90
43679;DHT22;29279;50.858;4.392;2022-12-29T08:20:36;10.40;99.90
43679;DHT22;29279;50.858;4.392;2022-12-29T08:23:02;10.50;99.90
43679;DHT22;29279;50.858;4.392;2022-12-29T08:25:28;10.50;99.90
43679;DHT22;29279;50.858;4.392;2022-12-29T08:27:53;10.50;99.90
43679;DHT22;29279;50.858;4.392;2022-12-29T08:30:19;10.50;99.90
43679;DHT22;29279;50.858;4.392;2022-12-29T08:32:45;10.50;99.90
43679;DHT22;29279;50.858;4.392;2022-12-29T08:35:10;10.50;99.90
43679;DHT22;29279;50.858;4.392;2022-12-29T08:37:38;10.50;99.90
43679;DHT22;29279;50.858;4.392;2022-12-29T08:40:04;10.70;99.90
43679;DHT22;29279;50.858;4.392;2022-12-29T08:42:31;10.70;99.90
43679;DHT22;29279;50.858;4.392;2022-12-29T08:44:58;10.70;99.90
43679;DHT22;29279;50.858;4.392;2022-12-29T08:47:24;10.80;99.90
43679;DHT22;29279;50.858;4.392;2022-12-29T08:49:53;10.70;99.90
43679;DHT22;29279;50.858;4.392;2022-12-29T08:52:19;10.70;99.90
43679;DHT22;29279;50.858;4.392;2022-12-29T08:54:44;10.70;99.90
43679;DHT22;29279;50.858;4.392;2022-12-29T08:57:10;10.70;99.90
43679;DHT22;29279;50.858;4.392;2022-12-29T08:59:36;10.80;99.90
43679;DHT22;29279;50.858;4.392;2022-12-29T09:02:02;10.80;99.90
43679;DHT22;29279;50.858;4.392;2022-12-29T09:04:28;10.80;99.90
43679;DHT22;29279;50.858;4.392;2022-12-29T09:06:53;10.70;99.90
43679;DHT22;29279;50.858;4.392;2022-12-29T09:09:20;10.40;99.90
43679;DHT22;29279;50.858;4.392;2022-12-29T09:11:46;10.20;99.90
43679;DHT22;29279;50.858;4.392;2022-12-29T09:14:15;10.20;99.90
43679;DHT22;29279;50.858;4.392;2022-12-29T09:16:41;10.20;99.90
43679;DHT22;29279;50.858;4.392;2022-12-29T09:19:25;10.20;99.90
43679;DHT22;29279;50.858;4.392;2022-12-29T09:21:51;10.40;99.90
43679;DHT22;29279;50.858;4.392;2022-12-29T09:24:17;10.30;99.90
43679;DHT22;29279;50.858;4.392;2022-12-29T09:26:42;10.20;99.90
43679;DHT22;29279;50.858;4.392;2022-12-29T09:29:08;10.10;99.90
43679;DHT22;29279;50.858;4.392;2022-12-29T09:31:34;10.10;99.90
43679;DHT22;29279;50.858;4.392;2022-12-29T09:33:59;10.00;99.90
43679;DHT22;29279;50.858;4.392;2022-12-29T09:36:25;9.80;99.90
43679;DHT22;29279;50.858;4.392;2022-12-29T09:38:53;9.70;99.90
43679;DHT22;29279;50.858;4.392;2022-12-29T09:47:24;9.90;99.90
43679;DHT22;29279;50.858;4.392;2022-12-29T09:50:20;9.90;99.90
43679;DHT22;29279;50.858;4.392;2022-12-29T09:53:01;9.90;99.90
43679;DHT22;29279;50.858;4.392;2022-12-29T09:55:49;10.00;99.90
43679;DHT22;29279;50.858;4.392;2022-12-29T09:58:24;10.00;99.90
43679;DHT22;29279;50.858;4.392;2022-12-29T10:01:06;10.00;99.90
43679;DHT22;29279;50.858;4.392;2022-12-29T10:03:50;10.20;99.90
43679;DHT22;29279;50.858;4.392;2022-12-29T10:06:39;10.30;99.90
43679;DHT22;29279;50.858;4.392;2022-12-29T10:17:46;10.40;99.90
43679;DHT22;29279;50.858;4.392;2022-12-29T10:23:27;10.40;99.90
43679;DHT22;29279;50.858;4.392;2022-12-29T10:25:56;10.50;99.90
43679;DHT22;29279;50.858;4.392;2022-12-29T10:28:24;10.60;99.90
43679;DHT22;29279;50.858;4.392;2022-12-29T10:30:57;10.70;99.90
43679;DHT22;29279;50.858;4.392;2022-12-29T10:33:32;10.70;99.90
43679;DHT22;29279;50.858;4.392;2022-12-29T10:35:59;10.80;99.90
43679;DHT22;29279;50.858;4.392;2022-12-29T10:38:35;10.80;99.90
43679;DHT22;29279;50.858;4.392;2022-12-29T10:41:25;10.90;99.90
43679;DHT22;29279;50.858;4.392;2022-12-29T10:43:56;11.10;99.90
43679;DHT22;29279;50.858;4.392;2022-12-29T10:46:33;11.20;99.90
43679;DHT22;29279;50.858;4.392;2022-12-29T10:49:01;11.10;99.90
43679;DHT22;29279;50.858;4.392;2022-12-29T10:51:33;11.10;99.90
43679;DHT22;29279;50.858;4.392;2022-12-29T10:54:18;11.10;99.90
43679;DHT22;29279;50.858;4.392;2022-12-29T10:56:52;11.10;99.90
43679;DHT22;29279;50.858;4.392;2022-12-29T10:59:24;11.20;99.90
43679;DHT22;29279;50.858;4.392;2022-12-29T11:07:07;11.10;99.90
43679;DHT22;29279;50.858;4.392;2022-12-29T11:09:36;11.20;99.90
43679;DHT22;29279;50.858;4.392;2022-12-29T11:12:20;11.20;99.90
43679;DHT22;29279;50.858;4.392;2022-12-29T11:14:47;11.20;99.90
43679;DHT22;29279;50.858;4.392;2022-12-29T11:17:17;11.30;99.90
43679;DHT22;29279;50.858;4.392;2022-12-29T11:19:43;11.50;99.90
43679;DHT22;29279;50.858;4.392;2022-12-29T11:22:22;11.70;99.90
43679;DHT22;29279;50.858;4.392;2022-12-29T11:24:50;12.00;99.90
43679;DHT22;29279;50.858;4.392;2022-12-29T11:29:45;12.00;99.90
43679;DHT22;29279;50.858;4.392;2022-12-29T11:34:45;11.60;99.90
43679;DHT22;29279;50.858;4.392;2022-12-29T11:37:27;11.40;99.90
43679;DHT22;29279;50.858;4.392;2022-12-29T11:40:01;11.20;99.90
43679;DHT22;29279;50.858;4.392;2022-12-29T11:42:41;11.00;99.90
43679;DHT22;29279;50.858;4.392;2022-12-29T11:45:19;11.00;99.90
43679;DHT22;29279;50.858;4.392;2022-12-29T11:47:49;11.00;99.90
43679;DHT22;29279;50.858;4.392;2022-12-29T11:50:22;10.90;99.90
43679;DHT22;29279;50.858;4.392;2022-12-29T11:52:51;10.70;99.90
43679;DHT22;29279;50.858;4.392;2022-12-29T11:55:25;10.70;99.90
43679;DHT22;29279;50.858;4.392;2022-12-29T11:57:52;10.70;99.90
43679;DHT22;29279;50.858;4.392;2022-12-29T12:00:20;10.70;99.90
43679;DHT22;29279;50.858;4.392;2022-12-29T12:03:13;10.70;99.90
43679;DHT22;29279;50.858;4.392;2022-12-29T12:05:49;10.70;99.90
43679;DHT22;29279;50.858;4.392;2022-12-29T12:08:41;10.70;99.90
43679;DHT22;29279;50.858;4.392;2022-12-29T12:11:18;10.60;99.90
43679;DHT22;29279;50.858;4.392;2022-12-29T12:14:23;10.60;99.90
43679;DHT22;29279;50.858;4.392;2022-12-29T12:19:34;10.60;99.90
43679;DHT22;29279;50.858;4.392;2022-12-29T12:22:15;10.50;99.90
43679;DHT22;29279;50.858;4.392;2022-12-29T12:27:47;10.30;99.90
43679;DHT22;29279;50.858;4.392;2022-12-29T12:30:20;10.30;99.90
43679;DHT22;29279;50.858;4.392;2022-12-29T12:49:52;10.80;99.90
43679;DHT22;29279;50.858;4.392;2022-12-29T12:55:25;10.70;99.90
43679;DHT22;29279;50.858;4.392;2022-12-29T12:57:57;10.70;99.90
43679;DHT22;29279;50.858;4.392;2022-12-29T13:00:28;10.60;99.90
43679;DHT22;29279;50.858;4.392;2022-12-29T13:03:22;10.70;99.90
43679;DHT22;29279;50.858;4.392;2022-12-29T13:09:04;10.80;99.90
43679;DHT22;29279;50.858;4.392;2022-12-29T13:17:17;10.60;99.90
43679;DHT22;29279;50.858;4.392;2022-12-29T13:20:39;10.60;99.90
43679;DHT22;29279;50.858;4.392;2022-12-29T13:23:10;10.60;99.90
43679;DHT22;29279;50.858;4.392;2022-12-29T13:31:18;10.70;99.90
43679;DHT22;29279;50.858;4.392;2022-12-29T13:36:43;10.80;99.90
43679;DHT22;29279;50.858;4.392;2022-12-29T13:39:23;10.80;99.90
43679;DHT22;29279;50.858;4.392;2022-12-29T13:41:53;10.90;99.90
43679;DHT22;29279;50.858;4.392;2022-12-29T13:44:40;10.80;99.90
43679;DHT22;29279;50.858;4.392;2022-12-29T13:47:26;10.90;99.90
43679;DHT22;29279;50.858;4.392;2022-12-29T13:49:53;12.00;99.90
43679;DHT22;29279;50.858;4.392;2022-12-29T13:52:31;12.80;99.90
43679;DHT22;29279;50.858;4.392;2022-12-29T13:57:40;12.10;99.90
43679;DHT22;29279;50.858;4.392;2022-12-29T14:00:19;11.60;99.90
43679;DHT22;29279;50.858;4.392;2022-12-29T14:07:47;11.20;99.90
43679;DHT22;29279;50.858;4.392;2022-12-29T14:11:10;11.20;99.90
43679;DHT22;29279;50.858;4.392;2022-12-29T14:13:18;11.10;99.90
43679;DHT22;29279;50.858;4.392;2022-12-29T14:15:57;10.90;99.90
43679;DHT22;29279;50.858;4.392;2022-12-29T14:18:25;10.90;99.90
43679;DHT22;29279;50.858;4.392;2022-12-29T14:20:57;10.90;99.90
43679;DHT22;29279;50.858;4.392;2022-12-29T14:23:37;10.80;99.90
43679;DHT22;29279;50.858;4.392;2022-12-29T14:28:41;10.60;99.90
43679;DHT22;29279;50.858;4.392;2022-12-29T14:37:02;10.80;99.90
43679;DHT22;29279;50.858;4.392;2022-12-29T14:39:37;10.70;99.90
43679;DHT22;29279;50.858;4.392;2022-12-29T14:44:31;10.70;99.90
43679;DHT22;29279;50.858;4.392;2022-12-29T14:47:00;10.70;99.90
43679;DHT22;29279;50.858;4.392;2022-12-29T14:49:32;10.50;99.90
43679;DHT22;29279;50.858;4.392;2022-12-29T14:52:19;10.10;99.90
43679;DHT22;29279;50.858;4.392;2022-12-29T14:54:54;9.80;99.90
43679;DHT22;29279;50.858;4.392;2022-12-29T14:59:46;9.40;99.90
43679;DHT22;29279;50.858;4.392;2022-12-29T15:02:19;9.40;99.90
43679;DHT22;29279;50.858;4.392;2022-12-29T15:04:46;9.30;99.90
43679;DHT22;29279;50.858;4.392;2022-12-29T15:07:13;9.20;99.90
43679;DHT22;29279;50.858;4.392;2022-12-29T15:09:43;9.20;99.90
43679;DHT22;29279;50.858;4.392;2022-12-29T15:15:01;9.00;99.90
43679;DHT22;29279;50.858;4.392;2022-12-29T15:17:28;8.70;99.90
43679;DHT22;29279;50.858;4.392;2022-12-29T15:19:56;8.50;99.90
43679;DHT22;29279;50.858;4.392;2022-12-29T15:22:22;8.40;99.90
43679;DHT22;29279;50.858;4.392;2022-12-29T15:24:51;8.30;99.90
43679;DHT22;29279;50.858;4.392;2022-12-29T15:27:24;8.30;99.90
43679;DHT22;29279;50.858;4.392;2022-12-29T15:30:02;8.30;99.90
43679;DHT22;29279;50.858;4.392;2022-12-29T15:32:38;8.20;99.90
43679;DHT22;29279;50.858;4.392;2022-12-29T15:37:50;8.20;99.90
43679;DHT22;29279;50.858;4.392;2022-12-29T15:40:25;8.10;99.90
43679;DHT22;29279;50.858;4.392;2022-12-29T15:45:32;8.30;99.90
43679;DHT22;29279;50.858;4.392;2022-12-29T15:47:58;8.30;99.90
43679;DHT22;29279;50.858;4.392;2022-12-29T15:50:26;8.30;99.90
43679;DHT22;29279;50.858;4.392;2022-12-29T15:52:53;8.30;99.90
43679;DHT22;29279;50.858;4.392;2022-12-29T15:55:39;8.40;99.90
43679;DHT22;29279;50.858;4.392;2022-12-29T15:58:20;8.50;99.90
43679;DHT22;29279;50.858;4.392;2022-12-29T16:00:49;8.60;99.90
43679;DHT22;29279;50.858;4.392;2022-12-29T16:03:16;8.50;99.90
43679;DHT22;29279;50.858;4.392;2022-12-29T16:05:50;8.50;99.90
43679;DHT22;29279;50.858;4.392;2022-12-29T16:08:31;8.70;99.90
43679;DHT22;29279;50.858;4.392;2022-12-29T16:10:59;8.60;99.90
43679;DHT22;29279;50.858;4.392;2022-12-29T16:13:31;8.50;99.90
43679;DHT22;29279;50.858;4.392;2022-12-29T16:16:02;8.40;99.90
43679;DHT22;29279;50.858;4.392;2022-12-29T16:18:32;8.40;99.90
43679;DHT22;29279;50.858;4.392;2022-12-29T16:21:00;8.60;99.90
43679;DHT22;29279;50.858;4.392;2022-12-29T16:23:27;8.60;99.90
43679;DHT22;29279;50.858;4.392;2022-12-29T16:25:55;8.60;99.90
43679;DHT22;29279;50.858;4.392;2022-12-29T16:28:39;8.60;99.90
43679;DHT22;29279;50.858;4.392;2022-12-29T16:31:23;8.60;99.90
43679;DHT22;29279;50.858;4.392;2022-12-29T16:33:52;8.50;99.90
43679;DHT22;29279;50.858;4.392;2022-12-29T16:38:50;8.50;99.90
43679;DHT22;29279;50.858;4.392;2022-12-29T16:41:30;8.50;99.90
43679;DHT22;29279;50.858;4.392;2022-12-29T16:49:40;8.50;99.90
43679;DHT22;29279;50.858;4.392;2022-12-29T16:52:32;8.50;99.90
43679;DHT22;29279;50.858;4.392;2022-12-29T16:54:59;8.50;99.90
43679;DHT22;29279;50.858;4.392;2022-12-29T16:57:29;8.50;99.90
43679;DHT22;29279;50.858;4.392;2022-12-29T16:59:59;8.60;99.90
43679;DHT22;29279;50.858;4.392;2022-12-29T17:02:28;8.60;99.90
43679;DHT22;29279;50.858;4.392;2022-12-29T17:04:54;8.60;99.90
43679;DHT22;29279;50.858;4.392;2022-12-29T17:07:23;8.70;99.90
43679;DHT22;29279;50.858;4.392;2022-12-29T17:09:49;8.70;99.90
43679;DHT22;29279;50.858;4.392;2022-12-29T17:12:18;8.70;99.90
43679;DHT22;29279;50.858;4.392;2022-12-29T17:14:56;8.70;99.90
43679;DHT22;29279;50.858;4.392;2022-12-29T17:20:14;8.70;99.90
43679;DHT22;29279;50.858;4.392;2022-12-29T17:22:40;8.60;99.90
43679;DHT22;29279;50.858;4.392;2022-12-29T17:25:10;8.50;99.90
43679;DHT22;29279;50.858;4.392;2022-12-29T17:27:58;8.50;99.90
43679;DHT22;29279;50.858;4.392;2022-12-29T17:30:25;8.40;99.90
43679;DHT22;29279;50.858;4.392;2022-12-29T17:32:56;8.40;99.90
43679;DHT22;29279;50.858;4.392;2022-12-29T17:35:22;8.30;99.90
43679;DHT22;29279;50.858;4.392;2022-12-29T17:37:49;8.30;99.90
43679;DHT22;29279;50.858;4.392;2022-12-29T17:40:20;8.30;99.90
43679;DHT22;29279;50.858;4.392;2022-12-29T17:42:48;8.30;99.90
43679;DHT22;29279;50.858;4.392;2022-12-29T17:45:26;8.30;99.90
43679;DHT22;29279;50.858;4.392;2022-12-29T17:47:53;8.30;99.90
43679;DHT22;29279;50.858;4.392;2022-12-29T17:50:23;8.20;99.90
43679;DHT22;29279;50.858;4.392;2022-12-29T17:52:58;8.30;99.90
43679;DHT22;29279;50.858;4.392;2022-12-29T17:55:24;8.30;99.90
43679;DHT22;29279;50.858;4.392;2022-12-29T17:57:51;8.30;99.90
43679;DHT22;29279;50.858;4.392;2022-12-29T18:00:19;8.40;99.90
43679;DHT22;29279;50.858;4.392;2022-12-29T18:02:46;8.40;99.90
43679;DHT22;29279;50.858;4.392;2022-12-29T18:05:24;8.40;99.90
43679;DHT22;29279;50.858;4.392;2022-12-29T18:07:52;8.30;99.90
43679;DHT22;29279;50.858;4.392;2022-12-29T18:10:20;8.30;99.90
43679;DHT22;29279;50.858;4.392;2022-12-29T18:12:47;8.20;99.90
43679;DHT22;29279;50.858;4.392;2022-12-29T18:15:26;8.20;99.90
43679;DHT22;29279;50.858;4.392;2022-12-29T18:17:59;8.10;99.90
43679;DHT22;29279;50.858;4.392;2022-12-29T18:20:26;8.20;99.90
43679;DHT22;29279;50.858;4.392;2022-12-29T18:22:52;8.10;99.90